sensor_id;sensor_type;location;lat;lon;timestamp;temperature;humidity
14682;DHT22;7429;52.498;13.480;2023-05-25T00:00:52;11.60;99.90
14682;DHT22;7429;52.498;13.480;2023-05-25T00:04:14;11.50;99.90
14682;DHT22;7429;52.498;13.480;2023-05-25T00:07:41;11.50;99.90
14682;DHT22;7429;52.498;13.480;2023-05-25T00:10:48;11.50;99.90
14682;DHT22;7429;52.498;13.480;2023-05-25T00:15:02;11.50;99.90
14682;DHT22;7429;52.498;13.480;2023-05-25T00:18:44;11.50;99.90
14682;DHT22;7429;52.498;13.480;2023-05-25T00:22:04;11.40;99.90
14682;DHT22;7429;52.498;13.480;2023-05-25T00:25:14;11.30;99.90
14682;DHT22;7429;52.498;13.480;2023-05-25T00:28:19;11.30;99.90
14682;DHT22;7429;52.498;13.480;2023-05-25T00:31:35;11.50;99.90
14682;DHT22;7429;52.498;13.480;2023-05-25T00:34:49;11.50;99.90
14682;DHT22;7429;52.498;13.480;2023-05-25T00:37:55;11.60;99.90
14682;DHT22;7429;52.498;13.480;2023-05-25T00:41:27;11.70;99.90
14682;DHT22;7429;52.498;13.480;2023-05-25T00:44:41;11.80;99.90
14682;DHT22;7429;52.498;13.480;2023-05-25T00:48:10;11.80;99.90
14682;DHT22;7429;52.498;13.480;2023-05-25T00:51:39;12.00;99.90
14682;DHT22;7429;52.498;13.480;2023-05-25T00:54:54;12.10;99.90
14682;DHT22;7429;52.498;13.480;2023-05-25T00:58:42;12.20;99.90
14682;DHT22;7429;52.498;13.480;2023-05-25T01:02:43;12.30;99.90
14682;DHT22;7429;52.498;13.480;2023-05-25T01:05:58;12.40;99.90
14682;DHT22;7429;52.498;13.480;2023-05-25T01:09:23;12.30;99.90
14682;DHT22;7429;52.498;13.480;2023-05-25T01:12:52;12.40;99.90
14682;DHT22;7429;52.498;13.480;2023-05-25T01:16:18;12.30;99.90
14682;DHT22;7429;52.498;13.480;2023-05-25T01:19:24;12.30;99.90
14682;DHT22;7429;52.498;13.480;2023-05-25T01:22:46;12.30;99.90
14682;DHT22;7429;52.498;13.480;2023-05-25T01:26:54;12.30;99.90
14682;DHT22;7429;52.498;13.480;2023-05-25T01:30:16;12.20;99.90
14682;DHT22;7429;52.498;13.480;2023-05-25T01:33:29;12.10;99.90
14682;DHT22;7429;52.498;13.480;2023-05-25T01:36:47;12.00;99.90
14682;DHT22;7429;52.498;13.480;2023-05-25T01:40:29;12.00;99.90
14682;DHT22;7429;52.498;13.480;2023-05-25T01:43:47;11.90;99.90
14682;DHT22;7429;52.498;13.480;2023-05-25T01:47:03;11.90;99.90
14682;DHT22;7429;52.498;13.480;2023-05-25T01:50:23;11.90;99.90
14682;DHT22;7429;52.498;13.480;2023-05-25T01:53:44;11.90;99.90
14682;DHT22;7429;52.498;13.480;2023-05-25T01:56:54;11.80;99.90
14682;DHT22;7429;52.498;13.480;2023-05-25T02:00:39;11.80;99.90
14682;DHT22;7429;52.498;13.480;2023-05-25T02:04:13;11.70;99.90
14682;DHT22;7429;52.498;13.480;2023-05-25T02:07:47;11.80;99.90
14682;DHT22;7429;52.498;13.480;2023-05-25T02:10:50;11.70;99.90
14682;DHT22;7429;52.498;13.480;2023-05-25T02:13:57;11.60;99.90
14682;DHT22;7429;52.498;13.480;2023-05-25T02:17:03;11.60;99.90
14682;DHT22;7429;52.498;13.480;2023-05-25T02:20:10;11.50;99.90
14682;DHT22;7429;52.498;13.480;2023-05-25T02:23:19;11.50;99.90
14682;DHT22;7429;52.498;13.480;2023-05-25T02:26:35;11.50;99.90
14682;DHT22;7429;52.498;13.480;2023-05-25T02:29:43;11.50;99.90
14682;DHT22;7429;52.498;13.480;2023-05-25T02:32:47;11.50;99.90
14682;DHT22;7429;52.498;13.480;2023-05-25T02:35:54;11.40;99.90
14682;DHT22;7429;52.498;13.480;2023-05-25T02:39:01;11.40;99.90
14682;DHT22;7429;52.498;13.480;2023-05-25T02:42:04;11.40;99.90
14682;DHT22;7429;52.498;13.480;2023-05-25T02:45:19;11.40;99.90
14682;DHT22;7429;52.498;13.480;2023-05-25T02:48:32;11.40;99.90
14682;DHT22;7429;52.498;13.480;2023-05-25T02:51:50;11.30;99.90
14682;DHT22;7429;52.498;13.480;2023-05-25T02:54:54;11.30;99.90
14682;DHT22;7429;52.498;13.480;2023-05-25T02:58:09;11.40;99.90
14682;DHT22;7429;52.498;13.480;2023-05-25T03:01:47;11.30;99.90
14682;DHT22;7429;52.498;13.480;2023-05-25T03:04:54;11.30;99.90
14682;DHT22;7429;52.498;13.480;2023-05-25T03:08:00;11.30;99.90
14682;DHT22;7429;52.498;13.480;2023-05-25T03:11:11;11.20;99.90
14682;DHT22;7429;52.498;13.480;2023-05-25T03:14:25;11.20;99.90
14682;DHT22;7429;52.498;13.480;2023-05-25T03:17:39;11.10;99.90
14682;DHT22;7429;52.498;13.480;2023-05-25T03:20:48;11.10;99.90
14682;DHT22;7429;52.498;13.480;2023-05-25T03:24:15;11.10;99.90
14682;DHT22;7429;52.498;13.480;2023-05-25T03:27:28;11.10;99.90
14682;DHT22;7429;52.498;13.480;2023-05-25T03:30:34;11.10;99.90
14682;DHT22;7429;52.498;13.480;2023-05-25T03:33:44;11.10;99.90
14682;DHT22;7429;52.498;13.480;2023-05-25T03:36:53;11.10;99.90
14682;DHT22;7429;52.498;13.480;2023-05-25T03:40:28;11.20;99.90
14682;DHT22;7429;52.498;13.480;2023-05-25T03:43:40;11.20;99.90
14682;DHT22;7429;52.498;13.480;2023-05-25T03:47:40;11.20;99.90
14682;DHT22;7429;52.498;13.480;2023-05-25T03:51:29;11.20;99.90
14682;DHT22;7429;52.498;13.480;2023-05-25T03:54:35;11.20;99.90
14682;DHT22;7429;52.498;13.480;2023-05-25T03:57:51;11.20;99.90
14682;DHT22;7429;52.498;13.480;2023-05-25T04:01:34;11.30;99.90
14682;DHT22;7429;52.498;13.480;2023-05-25T04:04:44;11.30;99.90
14682;DHT22;7429;52.498;13.480;2023-05-25T04:08:01;11.30;99.90
14682;DHT22;7429;52.498;13.480;2023-05-25T04:11:32;11.50;99.90
14682;DHT22;7429;52.498;13.480;2023-05-25T04:14:49;11.40;99.90
14682;DHT22;7429;52.498;13.480;2023-05-25T04:18:19;11.50;99.90
14682;DHT22;7429;52.498;13.480;2023-05-25T04:21:31;11.50;99.90
14682;DHT22;7429;52.498;13.480;2023-05-25T04:24:52;11.60;99.90
14682;DHT22;7429;52.498;13.480;2023-05-25T04:28:09;11.60;99.90
14682;DHT22;7429;52.498;13.480;2023-05-25T04:31:22;11.70;99.90
14682;DHT22;7429;52.498;13.480;2023-05-25T04:34:48;11.70;99.90
14682;DHT22;7429;52.498;13.480;2023-05-25T04:38:27;11.80;99.90
14682;DHT22;7429;52.498;13.480;2023-05-25T04:41:37;11.80;99.90
14682;DHT22;7429;52.498;13.480;2023-05-25T04:45:07;11.90;99.90
14682;DHT22;7429;52.498;13.480;2023-05-25T04:48:18;11.90;99.90
14682;DHT22;7429;52.498;13.480;2023-05-25T04:51:23;11.90;99.90
14682;DHT22;7429;52.498;13.480;2023-05-25T04:54:33;12.00;99.90
14682;DHT22;7429;52.498;13.480;2023-05-25T05:03:23;12.10;99.90
14682;DHT22;7429;52.498;13.480;2023-05-25T05:07:43;12.20;99.90
14682;DHT22;7429;52.498;13.480;2023-05-25T05:12:29;12.30;99.90
14682;DHT22;7429;52.498;13.480;2023-05-25T05:43:12;13.10;99.90
14682;DHT22;7429;52.498;13.480;2023-05-25T05:46:32;13.30;99.90
14682;DHT22;7429;52.498;13.480;2023-05-25T05:50:12;13.50;99.90
14682;DHT22;7429;52.498;13.480;2023-05-25T05:53:50;13.80;99.90
14682;DHT22;7429;52.498;13.480;2023-05-25T05:57:31;14.00;99.90
14682;DHT22;7429;52.498;13.480;2023-05-25T06:01:14;14.20;99.90
14682;DHT22;7429;52.498;13.480;2023-05-25T06:04:51;14.40;99.90
14682;DHT22;7429;52.498;13.480;2023-05-25T06:08:54;14.50;99.90
14682;DHT22;7429;52.498;13.480;2023-05-25T06:12:53;14.60;99.90
14682;DHT22;7429;52.498;13.480;2023-05-25T06:16:18;14.80;99.90
14682;DHT22;7429;52.498;13.480;2023-05-25T06:19:55;15.00;99.90
14682;DHT22;7429;52.498;13.480;2023-05-25T06:23:53;15.20;99.90
14682;DHT22;7429;52.498;13.480;2023-05-25T06:27:42;15.40;99.90
14682;DHT22;7429;52.498;13.480;2023-05-25T07:27:57;17.70;99.90
14682;DHT22;7429;52.498;13.480;2023-05-25T07:31:59;18.00;99.90
14682;DHT22;7429;52.498;13.480;2023-05-25T07:35:23;18.20;99.90
14682;DHT22;7429;52.498;13.480;2023-05-25T07:38:38;18.10;99.90
14682;DHT22;7429;52.498;13.480;2023-05-25T07:47:07;18.30;99.90
14682;DHT22;7429;52.498;13.480;2023-05-25T07:50:27;18.20;99.90
14682;DHT22;7429;52.498;13.480;2023-05-25T07:53:58;18.00;99.90
14682;DHT22;7429;52.498;13.480;2023-05-25T07:58:14;17.70;99.90
14682;DHT22;7429;52.498;13.480;2023-05-25T08:02:56;17.60;99.90
14682;DHT22;7429;52.498;13.480;2023-05-25T08:06:34;17.90;99.90
14682;DHT22;7429;52.498;13.480;2023-05-25T08:09:49;18.30;99.90
14682;DHT22;7429;52.498;13.480;2023-05-25T08:14:00;18.60;99.90
14682;DHT22;7429;52.498;13.480;2023-05-25T08:17:28;18.50;99.90
14682;DHT22;7429;52.498;13.480;2023-05-25T08:21:23;18.20;99.90
14682;DHT22;7429;52.498;13.480;2023-05-25T08:25:56;18.00;99.90
14682;DHT22;7429;52.498;13.480;2023-05-25T08:30:54;17.80;99.90
14682;DHT22;7429;52.498;13.480;2023-05-25T08:35:04;17.80;99.90
14682;DHT22;7429;52.498;13.480;2023-05-25T08:39:25;18.00;99.90
14682;DHT22;7429;52.498;13.480;2023-05-25T08:42:43;18.30;99.90
14682;DHT22;7429;52.498;13.480;2023-05-25T08:46:02;18.70;99.90
14682;DHT22;7429;52.498;13.480;2023-05-25T08:49:40;18.70;99.90
14682;DHT22;7429;52.498;13.480;2023-05-25T08:54:17;18.50;99.90
14682;DHT22;7429;52.498;13.480;2023-05-25T08:58:59;18.30;99.90
14682;DHT22;7429;52.498;13.480;2023-05-25T09:06:41;18.10;99.90
14682;DHT22;7429;52.498;13.480;2023-05-25T09:10:33;18.50;99.90
14682;DHT22;7429;52.498;13.480;2023-05-25T09:14:11;19.20;99.90
14682;DHT22;7429;52.498;13.480;2023-05-25T09:17:30;19.60;99.90
14682;DHT22;7429;52.498;13.480;2023-05-25T09:21:07;20.00;99.90
14682;DHT22;7429;52.498;13.480;2023-05-25T09:24:40;20.20;99.90
14682;DHT22;7429;52.498;13.480;2023-05-25T09:28:22;20.40;99.90
14682;DHT22;7429;52.498;13.480;2023-05-25T09:31:43;20.60;99.90
14682;DHT22;7429;52.498;13.480;2023-05-25T09:35:25;20.60;99.90
14682;DHT22;7429;52.498;13.480;2023-05-25T09:39:07;20.60;99.90
14682;DHT22;7429;52.498;13.480;2023-05-25T09:42:42;20.70;99.90
14682;DHT22;7429;52.498;13.480;2023-05-25T09:45:51;20.60;99.90
14682;DHT22;7429;52.498;13.480;2023-05-25T09:49:07;20.20;99.90
14682;DHT22;7429;52.498;13.480;2023-05-25T09:52:30;20.10;99.90
14682;DHT22;7429;52.498;13.480;2023-05-25T09:56:56;20.30;99.90
14682;DHT22;7429;52.498;13.480;2023-05-25T10:00:23;20.60;99.90
14682;DHT22;7429;52.498;13.480;2023-05-25T10:03:44;20.90;99.90
14682;DHT22;7429;52.498;13.480;2023-05-25T10:07:52;21.20;99.90
14682;DHT22;7429;52.498;13.480;2023-05-25T10:11:46;21.00;99.90
14682;DHT22;7429;52.498;13.480;2023-05-25T10:15:57;21.20;99.90
14682;DHT22;7429;52.498;13.480;2023-05-25T10:23:13;21.70;99.90
14682;DHT22;7429;52.498;13.480;2023-05-25T10:27:18;21.50;99.90
14682;DHT22;7429;52.498;13.480;2023-05-25T10:31:31;21.20;99.90
14682;DHT22;7429;52.498;13.480;2023-05-25T10:35:13;21.50;99.90
14682;DHT22;7429;52.498;13.480;2023-05-25T10:38:26;21.50;99.90
14682;DHT22;7429;52.498;13.480;2023-05-25T10:42:20;21.50;99.90
14682;DHT22;7429;52.498;13.480;2023-05-25T10:45:58;21.60;99.90
14682;DHT22;7429;52.498;13.480;2023-05-25T10:49:58;21.50;99.90
14682;DHT22;7429;52.498;13.480;2023-05-25T11:02:21;21.40;99.90
14682;DHT22;7429;52.498;13.480;2023-05-25T11:05:52;21.20;99.90
14682;DHT22;7429;52.498;13.480;2023-05-25T11:09:01;21.50;99.90
14682;DHT22;7429;52.498;13.480;2023-05-25T11:13:01;21.80;99.90
14682;DHT22;7429;52.498;13.480;2023-05-25T11:21:46;21.40;99.90
14682;DHT22;7429;52.498;13.480;2023-05-25T11:25:00;21.50;99.90
14682;DHT22;7429;52.498;13.480;2023-05-25T11:28:51;21.80;99.90
14682;DHT22;7429;52.498;13.480;2023-05-25T11:32:35;22.40;99.90
14682;DHT22;7429;52.498;13.480;2023-05-25T11:35:49;22.50;99.90
14682;DHT22;7429;52.498;13.480;2023-05-25T11:39:14;22.60;99.90
14682;DHT22;7429;52.498;13.480;2023-05-25T11:42:28;22.70;99.90
14682;DHT22;7429;52.498;13.480;2023-05-25T11:46:01;22.70;99.90
14682;DHT22;7429;52.498;13.480;2023-05-25T11:49:57;22.80;99.90
14682;DHT22;7429;52.498;13.480;2023-05-25T11:53:09;23.20;99.90
14682;DHT22;7429;52.498;13.480;2023-05-25T11:56:52;23.30;99.90
14682;DHT22;7429;52.498;13.480;2023-05-25T12:00:10;22.90;99.90
14682;DHT22;7429;52.498;13.480;2023-05-25T12:03:49;23.00;99.90
14682;DHT22;7429;52.498;13.480;2023-05-25T12:13:03;22.50;99.90
14682;DHT22;7429;52.498;13.480;2023-05-25T12:16:35;22.60;99.90
14682;DHT22;7429;52.498;13.480;2023-05-25T12:20:44;22.70;99.90
14682;DHT22;7429;52.498;13.480;2023-05-25T12:24:12;22.80;99.90
14682;DHT22;7429;52.498;13.480;2023-05-25T12:28:17;22.50;99.90
14682;DHT22;7429;52.498;13.480;2023-05-25T12:33:07;22.80;99.90
14682;DHT22;7429;52.498;13.480;2023-05-25T12:36:59;22.30;99.90
14682;DHT22;7429;52.498;13.480;2023-05-25T12:41:06;21.80;99.90
14682;DHT22;7429;52.498;13.480;2023-05-25T12:45:15;21.70;99.90
14682;DHT22;7429;52.498;13.480;2023-05-25T12:49:00;22.60;99.90
14682;DHT22;7429;52.498;13.480;2023-05-25T12:52:47;22.20;99.90
14682;DHT22;7429;52.498;13.480;2023-05-25T12:56:21;21.80;99.90
14682;DHT22;7429;52.498;13.480;2023-05-25T12:59:57;21.50;99.90
14682;DHT22;7429;52.498;13.480;2023-05-25T13:03:37;21.20;99.90
14682;DHT22;7429;52.498;13.480;2023-05-25T13:07:13;20.60;99.90
14682;DHT22;7429;52.498;13.480;2023-05-25T13:10:59;20.40;99.90
14682;DHT22;7429;52.498;13.480;2023-05-25T13:14:38;20.60;99.90
14682;DHT22;7429;52.498;13.480;2023-05-25T13:19:07;20.80;99.90
14682;DHT22;7429;52.498;13.480;2023-05-25T13:22:48;20.90;99.90
14682;DHT22;7429;52.498;13.480;2023-05-25T14:04:58;24.10;99.90
14682;DHT22;7429;52.498;13.480;2023-05-25T14:08:54;24.30;99.90
14682;DHT22;7429;52.498;13.480;2023-05-25T14:18:21;22.70;99.90
14682;DHT22;7429;52.498;13.480;2023-05-25T14:21:53;22.40;99.90
14682;DHT22;7429;52.498;13.480;2023-05-25T14:26:24;23.10;99.90
14682;DHT22;7429;52.498;13.480;2023-05-25T14:30:36;23.70;99.90
14682;DHT22;7429;52.498;13.480;2023-05-25T14:45:26;24.30;99.90
14682;DHT22;7429;52.498;13.480;2023-05-25T14:49:17;23.60;99.90
14682;DHT22;7429;52.498;13.480;2023-05-25T14:55:33;23.00;99.90
14682;DHT22;7429;52.498;13.480;2023-05-25T14:57:23;23.20;99.90
14682;DHT22;7429;52.498;13.480;2023-05-25T15:01:09;23.80;99.90
14682;DHT22;7429;52.498;13.480;2023-05-25T15:04:28;24.50;99.90
14682;DHT22;7429;52.498;13.480;2023-05-25T15:07:37;25.10;99.90
14682;DHT22;7429;52.498;13.480;2023-05-25T15:18:59;24.30;99.90
14682;DHT22;7429;52.498;13.480;2023-05-25T15:27:41;25.00;99.90
14682;DHT22;7429;52.498;13.480;2023-05-25T15:31:19;25.00;99.90
14682;DHT22;7429;52.498;13.480;2023-05-25T15:35:03;24.40;99.90
14682;DHT22;7429;52.498;13.480;2023-05-25T15:39:01;23.80;99.90
14682;DHT22;7429;52.498;13.480;2023-05-25T15:43:34;23.70;99.90
14682;DHT22;7429;52.498;13.480;2023-05-25T15:53:16;23.70;99.90
14682;DHT22;7429;52.498;13.480;2023-05-25T16:27:45;22.20;99.90
14682;DHT22;7429;52.498;13.480;2023-05-25T17:05:36;20.90;99.90
14682;DHT22;7429;52.498;13.480;2023-05-25T17:42:37;19.80;99.90
14682;DHT22;7429;52.498;13.480;2023-05-25T17:45:52;19.90;99.90
14682;DHT22;7429;52.498;13.480;2023-05-25T17:49:31;19.80;99.90
14682;DHT22;7429;52.498;13.480;2023-05-25T18:00:00;19.60;99.90
14682;DHT22;7429;52.498;13.480;2023-05-25T18:03:27;19.50;99.90
14682;DHT22;7429;52.498;13.480;2023-05-25T18:07:18;19.40;99.90
14682;DHT22;7429;52.498;13.480;2023-05-25T18:10:48;19.20;99.90
14682;DHT22;7429;52.498;13.480;2023-05-25T18:14:49;19.10;99.90
14682;DHT22;7429;52.498;13.480;2023-05-25T18:44:11;18.60;99.90
14682;DHT22;7429;52.498;13.480;2023-05-25T18:53:51;18.40;99.90
14682;DHT22;7429;52.498;13.480;2023-05-25T18:57:37;18.30;99.90
14682;DHT22;7429;52.498;13.480;2023-05-25T19:06:21;18.10;99.90
14682;DHT22;7429;52.498;13.480;2023-05-25T19:10:45;18.10;99.90
14682;DHT22;7429;52.498;13.480;2023-05-25T19:25:39;17.90;99.90
14682;DHT22;7429;52.498;13.480;2023-05-25T19:39:01;17.70;99.90
14682;DHT22;7429;52.498;13.480;2023-05-25T19:48:31;17.50;99.90
14682;DHT22;7429;52.498;13.480;2023-05-25T19:57:32;17.30;99.90
14682;DHT22;7429;52.498;13.480;2023-05-25T20:02:13;17.20;99.90
14682;DHT22;7429;52.498;13.480;2023-05-25T20:07:21;17.20;99.90
14682;DHT22;7429;52.498;13.480;2023-05-25T20:11:34;17.10;99.90
14682;DHT22;7429;52.498;13.480;2023-05-25T20:21:22;16.90;99.90
14682;DHT22;7429;52.498;13.480;2023-05-25T20:25:58;16.80;99.90
14682;DHT22;7429;52.498;13.480;2023-05-25T20:29:52;16.80;99.90
14682;DHT22;7429;52.498;13.480;2023-05-25T20:34:08;16.70;99.90
14682;DHT22;7429;52.498;13.480;2023-05-25T20:38:24;16.50;99.90
14682;DHT22;7429;52.498;13.480;2023-05-25T20:42:35;16.50;99.90
14682;DHT22;7429;52.498;13.480;2023-05-25T20:46:47;16.40;99.90
14682;DHT22;7429;52.498;13.480;2023-05-25T20:50:40;16.30;99.90
14682;DHT22;7429;52.498;13.480;2023-05-25T20:54:38;16.30;99.90
14682;DHT22;7429;52.498;13.480;2023-05-25T20:58:32;16.20;99.90
14682;DHT22;7429;52.498;13.480;2023-05-25T21:01:52;16.20;99.90
14682;DHT22;7429;52.498;13.480;2023-05-25T21:05:35;16.10;99.90
14682;DHT22;7429;52.498;13.480;2023-05-25T21:09:35;16.10;99.90
14682;DHT22;7429;52.498;13.480;2023-05-25T21:13:05;16.00;99.90
14682;DHT22;7429;52.498;13.480;2023-05-25T21:21:02;15.80;99.90
14682;DHT22;7429;52.498;13.480;2023-05-25T21:25:01;15.70;99.90
14682;DHT22;7429;52.498;13.480;2023-05-25T21:29:36;15.60;99.90
14682;DHT22;7429;52.498;13.480;2023-05-25T21:34:16;15.50;99.90
14682;DHT22;7429;52.498;13.480;2023-05-25T21:38:08;15.50;99.90
14682;DHT22;7429;52.498;13.480;2023-05-25T21:42:21;15.40;99.90
14682;DHT22;7429;52.498;13.480;2023-05-25T21:46:18;15.40;99.90
14682;DHT22;7429;52.498;13.480;2023-05-25T21:58:16;15.30;99.90
14682;DHT22;7429;52.498;13.480;2023-05-25T22:01:56;15.20;99.90
14682;DHT22;7429;52.498;13.480;2023-05-25T22:06:09;15.20;99.90
14682;DHT22;7429;52.498;13.480;2023-05-25T22:09:33;15.10;99.90
14682;DHT22;7429;52.498;13.480;2023-05-25T22:13:38;15.10;99.90
14682;DHT22;7429;52.498;13.480;2023-05-25T22:17:48;15.00;99.90
14682;DHT22;7429;52.498;13.480;2023-05-25T22:21:25;15.00;99.90
14682;DHT22;7429;52.498;13.480;2023-05-25T22:25:39;15.00;99.90
14682;DHT22;7429;52.498;13.480;2023-05-25T22:29:37;15.00;99.90
14682;DHT22;7429;52.498;13.480;2023-05-25T22:33:09;15.00;99.90
14682;DHT22;7429;52.498;13.480;2023-05-25T22:36:25;14.90;99.90
14682;DHT22;7429;52.498;13.480;2023-05-25T22:39:52;14.90;99.90
14682;DHT22;7429;52.498;13.480;2023-05-25T22:43:27;14.90;99.90
14682;DHT22;7429;52.498;13.480;2023-05-25T22:46:47;14.80;99.90
14682;DHT22;7429;52.498;13.480;2023-05-25T22:54:02;14.70;99.90
14682;DHT22;7429;52.498;13.480;2023-05-25T22:57:18;14.50;99.90
14682;DHT22;7429;52.498;13.480;2023-05-25T23:00:54;14.50;99.90
14682;DHT22;7429;52.498;13.480;2023-05-25T23:04:24;14.50;99.90
14682;DHT22;7429;52.498;13.480;2023-05-25T23:07:32;14.40;99.90
14682;DHT22;7429;52.498;13.480;2023-05-25T23:11:19;14.40;99.90
14682;DHT22;7429;52.498;13.480;2023-05-25T23:14:55;14.30;99.90
14682;DHT22;7429;52.498;13.480;2023-05-25T23:18:48;14.20;99.90
14682;DHT22;7429;52.498;13.480;2023-05-25T23:22:40;14.10;99.90
14682;DHT22;7429;52.498;13.480;2023-05-25T23:26:25;14.10;99.90
14682;DHT22;7429;52.498;13.480;2023-05-25T23:30:31;14.00;99.90
14682;DHT22;7429;52.498;13.480;2023-05-25T23:34:14;13.90;99.90
14682;DHT22;7429;52.498;13.480;2023-05-25T23:37:56;13.80;99.90
14682;DHT22;7429;52.498;13.480;2023-05-25T23:54:08;13.60;99.90
14682;DHT22;7429;52.498;13.480;2023-05-25T23:58:49;13.40;99.90
